Time;durP1;ratioP1;P1;durP2;ratioP2;P2;SDS_P1;SDS_P2;PMS_P1;PMS_P2;Temp;Humidity;BMP_temperature;BMP_pressure;BME280_temperature;BME280_humidity;BME280_pressure;Samples;Min_cycle;Max_cycle;Signal;HPM_P1;HPM_P2
2023/10/21 00:01:44;;;;;;;;;;;;;;;;;;5011313;28;19925;-86
2023/10/21 00:04:09;;;;;;;;;;;;;;;;;;5010759;28;19969;-87
2023/10/21 00:06:34;;;;;;;;;;;;;;;;;;5015647;28;19917;-85
2023/10/21 00:08:59;;;;;;;;;;;;;;;;;;5018931;28;19929;-86
2023/10/21 00:11:25;;;;;;;;;;;;;;;;;;5019340;28;19977;-86
2023/10/21 00:13:50;;;;;;;;;;;;;;;;;;5018131;28;19917;-87
2023/10/21 00:16:15;;;;;;;;;;;;;;;;;;5021949;28;19914;-85
2023/10/21 00:18:40;;;;;;;;;;;;;;;;;;5014111;28;19921;-86
2023/10/21 00:21:05;;;;;;;;;;;;;;;;;;5011739;28;19964;-86
2023/10/21 00:23:31;;;;;;;;;;;;;;;;;;4994052;28;19963;-86
2023/10/21 00:25:56;;;;;;;;;;;;;;;;;;5011273;28;20424;-88
2023/10/21 00:28:21;;;;;;;;;;;;;;;;;;5009584;28;19921;-88
2023/10/21 00:30:47;;;;;;;;;;;;;;;;;;5011206;28;19921;-88
2023/10/21 00:33:13;;;;;;;;;;;;;;;;;;5008545;28;19917;-88
2023/10/21 00:35:39;;;;;;;;;;;;;;;;;;5008147;28;19917;-86
2023/10/21 00:38:04;;;;;;;;;;;;;;;;;;5022501;28;20012;-86
2023/10/21 00:40:29;;;;;;;;;;;;;;;;;;5013223;28;19941;-87
2023/10/21 00:42:54;;;;;;;;;;;;;;;;;;5011789;28;19932;-86
2023/10/21 00:45:19;;;;;;;;;;;;;;;;;;5005699;28;20256;-85
2023/10/21 00:47:44;;;;;;;;;;;;;;;;;;5015457;28;19917;-85
2023/10/21 00:50:09;;;;;;;;;;;;;;;;;;5006189;28;19917;-87
2023/10/21 00:52:34;;;;;;;;;;;;;;;;;;5009284;28;19928;-87
2023/10/21 00:54:59;;;;;;;;;;;;;;;;;;5005853;28;19918;-86
2023/10/21 00:57:25;;;;;;;;;;;;;;;;;;5010344;28;20387;-86
2023/10/21 00:59:50;;;;;;;;;;;;;;;;;;5008430;28;19914;-87
2023/10/21 01:02:15;;;;;;;;;;;;;;;;;;5009696;28;20386;-88
2023/10/21 01:04:40;;;;;;;;;;;;;;;;;;5014805;28;20257;-86
2023/10/21 01:07:05;;;;;;;;;;;;;;;;;;5015124;28;19921;-88
2023/10/21 01:09:31;;;;;;;;;;;;;;;;;;5011774;28;19998;-87
2023/10/21 01:11:56;;;;;;;;;;;;;;;;;;5005938;28;20032;-87
2023/10/21 01:14:21;;;;;;;;;;;;;;;;;;5009836;28;20522;-87
2023/10/21 01:16:46;;;;;;;;;;;;;;;;;;5009378;28;20380;-86
2023/10/21 01:19:13;;;;;;;;;;;;;;;;;;5017359;28;19917;-87
2023/10/21 01:21:38;;;;;;;;;;;;;;;;;;5015461;28;19996;-87
2023/10/21 01:24:03;;;;;;;;;;;;;;;;;;5013183;28;19945;-87
2023/10/21 01:26:28;;;;;;;;;;;;;;;;;;5017754;28;20377;-88
2023/10/21 01:28:54;;;;;;;;;;;;;;;;;;5016528;28;19921;-87
2023/10/21 01:31:19;;;;;;;;;;;;;;;;;;5016627;28;19917;-86
2023/10/21 01:33:44;;;;;;;;;;;;;;;;;;5023214;28;19963;-87
2023/10/21 01:36:09;;;;;;;;;;;;;;;;;;5019026;28;19921;-86
2023/10/21 01:38:34;;;;;;;;;;;;;;;;;;5010493;28;20563;-87
2023/10/21 01:41:00;;;;;;;;;;;;;;;;;;5013061;28;19918;-88
2023/10/21 01:43:25;;;;;;;298.60;105.20;;;;;;;;;;5014200;28;20505;-88
2023/10/21 01:45:50;;;;;;;;;;;;;;;;;;5012729;28;20335;-88
2023/10/21 01:48:16;;;;;;;;;;;;;;;;;;5013080;28;19968;-87
2023/10/21 01:50:41;;;;;;;;;;;;;;;;;;5013849;28;19948;-88
2023/10/21 01:53:06;;;;;;;;;;;;;;;;;;5012295;28;19924;-87
2023/10/21 01:55:31;;;;;;;;;;;;;;;;;;5008354;28;19985;-87
2023/10/21 01:57:56;;;;;;;;;;;;;;;;;;5022777;28;19945;-87
2023/10/21 02:00:22;;;;;;;;;;;;;;;;;;5017571;28;19964;-88
2023/10/21 02:02:47;;;;;;;;;;;;;;;;;;5012730;28;19956;-87
2023/10/21 02:05:14;;;;;;;;;;;;;;;;;;5010537;28;22304;-86
2023/10/21 02:07:39;;;;;;;;;;;;;;;;;;5011797;28;20005;-86
2023/10/21 02:10:04;;;;;;;;;;;;;;;;;;5011172;28;19922;-88
2023/10/21 02:12:29;;;;;;;;;;;;;;;;;;5026675;28;19925;-87
2023/10/21 02:14:54;;;;;;;;;;;;;;;;;;5015412;28;19935;-86
2023/10/21 02:17:19;;;;;;;;;;;;;;;;;;5008694;28;20045;-86
2023/10/21 02:19:44;;;;;;;;;;;;;;;;;;5013533;28;20301;-88
2023/10/21 02:22:09;;;;;;;;;;;;;;;;;;5019115;28;19921;-87
2023/10/21 02:24:35;;;;;;;;;;;;;;;;;;5011672;28;20008;-88
2023/10/21 02:27:00;;;;;;;;;;;;;;;;;;5012212;28;19926;-86
2023/10/21 02:29:25;;;;;;;;;;;;;;;;;;5014012;28;19969;-88
2023/10/21 02:31:51;;;;;;;;;;;;;;;;;;5012720;28;20064;-88
2023/10/21 02:34:16;;;;;;;;;;;;;;;;;;5013419;28;19922;-87
2023/10/21 02:36:41;;;;;;;;;;;;;;;;;;5012868;28;20330;-87
2023/10/21 02:39:07;;;;;;;;;;;;;;;;;;5013688;28;19921;-87
2023/10/21 02:41:32;;;;;;;;;;;;;;;;;;5015382;28;19976;-87
2023/10/21 02:43:58;;;;;;;;;;;;;;;;;;5008608;28;19921;-87
2023/10/21 02:46:23;;;;;;;;;;;;;;;;;;5012348;28;19922;-87
2023/10/21 02:48:48;;;;;;;;;;;;;;;;;;5011356;28;19925;-87
2023/10/21 02:51:13;;;;;;;;;;;;;;;;;;5011254;28;19921;-87
2023/10/21 02:53:38;;;;;;;;;;;;;;;;;;5010479;28;19945;-86
2023/10/21 02:56:03;;;;;;;;;;;;;;;;;;5020010;28;19928;-87
2023/10/21 02:58:28;;;;;;;;;;;;;;;;;;5015922;28;20016;-86
2023/10/21 03:00:54;;;;;;;;;;;;;;;;;;5019481;28;19921;-87
2023/10/21 03:03:19;;;;;;;;;;;;;;;;;;5013202;28;19929;-86
2023/10/21 03:05:44;;;;;;;;;;;;;;;;;;5011699;28;19988;-87
2023/10/21 03:08:09;;;;;;;;;;;;;;;;;;5015212;28;19926;-87
2023/10/21 03:10:34;;;;;;;;;;;;;;;;;;5015759;28;19926;-88
2023/10/21 03:12:59;;;;;;;;;;;;;;;;;;5010667;28;19925;-86
2023/10/21 03:15:24;;;;;;;;;;;;;;;;;;5017194;28;19961;-88
2023/10/21 03:17:50;;;;;;;;;;;;;;;;;;5012108;28;20015;-86
2023/10/21 03:20:15;;;;;;;;;;;;;;;;;;5011533;28;19928;-87
2023/10/21 03:22:41;;;;;;;;;;;;;;;;;;5011423;28;19928;-87
2023/10/21 03:25:07;;;;;;;;;;;;;;;;;;5019408;28;20258;-88
2023/10/21 03:27:32;;;;;;;;;;;;;;;;;;5019411;28;20828;-87
2023/10/21 03:29:57;;;;;;;;;;;;;;;;;;5010124;28;20322;-87
2023/10/21 03:32:23;;;;;;;;;;;;;;;;;;5004454;28;20332;-88
2023/10/21 03:34:48;;;;;;;;;;;;;;;;;;5010206;28;19922;-87
2023/10/21 03:37:13;;;;;;;;;;;;;;;;;;5010265;28;19960;-88
2023/10/21 03:39:38;;;;;;;;;;;;;;;;;;5011072;28;20060;-87
2023/10/21 03:42:03;;;;;;;;;;;;;;;;;;5008214;28;19926;-86
2023/10/21 03:44:28;;;;;;;;;;;;;;;;;;5011431;28;19983;-87
2023/10/21 03:46:53;;;;;;;;;;;;;;;;;;5011116;28;20009;-88
2023/10/21 03:49:19;;;;;;;;;;;;;;;;;;5014743;28;19925;-87
2023/10/21 03:51:44;;;;;;;;;;;;;;;;;;5013641;28;20592;-86
2023/10/21 03:54:10;;;;;;;;;;;;;;;;;;5010920;28;20442;-87
2023/10/21 03:56:35;;;;;;;;;;;;;;;;;;5009650;28;19928;-87
2023/10/21 03:59:00;;;;;;;;;;;;;;;;;;5012903;28;19922;-87
2023/10/21 04:01:25;;;;;;;;;;;;;;;;;;5007481;28;19940;-87
2023/10/21 04:03:50;;;;;;;;;;;;;;;;;;5019986;28;19928;-87
2023/10/21 04:06:17;;;;;;;;;;;;;;;;;;5011205;28;19924;-87
2023/10/21 04:08:42;;;;;;;;;;;;;;;;;;5007326;28;19926;-87
2023/10/21 04:11:08;;;;;;;;;;;;;;;;;;5005904;28;19922;-86
2023/10/21 04:13:33;;;;;;;;;;;;;;;;;;5010930;28;20012;-88
2023/10/21 04:15:59;;;;;;;;;;;;;;;;;;5013309;28;20394;-87
2023/10/21 04:18:24;;;;;;;;;;;;;;;;;;5024097;28;19932;-87
2023/10/21 04:20:49;;;;;;;;;;;;;;;;;;5010458;28;20008;-87
2023/10/21 04:23:14;;;;;;;;;;;;;;;;;;5015187;28;20375;-87
2023/10/21 04:25:39;;;;;;;;;;;;;;;;;;5010692;28;20823;-88
2023/10/21 04:28:05;;;;;;;;;;;;;;;;;;5013054;28;19925;-87
2023/10/21 04:30:30;;;;;;;;;;;;;;;;;;5010663;28;20292;-88
2023/10/21 04:32:55;;;;;;;;;;;;;;;;;;5009403;28;19991;-87
2023/10/21 04:35:20;;;;;;;;;;;;;;;;;;5015486;28;20367;-87
2023/10/21 04:37:45;;;;;;;;;;;;;;;;;;5009554;28;19922;-88
2023/10/21 04:40:11;;;;;;;;;;;;;;;;;;5008699;28;19928;-87
2023/10/21 04:42:36;;;;;;;;;;;;;;;;;;5010416;28;19929;-88
2023/10/21 04:45:02;;;;;;;;;;;;;;;;;;5009808;28;19926;-87
2023/10/21 04:47:28;;;;;;;;;;;;;;;;;;5007158;28;19922;-88
2023/10/21 04:49:53;;;;;;;;;;;;;;;;;;5006701;28;19925;-87
2023/10/21 04:52:19;;;;;;;;;;;;;;;;;;5017570;28;19969;-87
2023/10/21 04:54:44;;;;;;;;;;;;;;;;;;4999397;28;19929;-86
2023/10/21 04:57:09;;;;;;;;;;;;;;;;;;5014696;28;19968;-88
2023/10/21 04:59:34;;;;;;;;;;;;;;;;;;5016195;28;19929;-87
2023/10/21 05:01:59;;;;;;;;;;;;;;;;;;5010401;28;20029;-87
2023/10/21 05:04:25;;;;;;;;;;;;;;;;;;5018504;28;20037;-87
2023/10/21 05:06:50;;;;;;;;;;;;;;;;;;5021501;28;20382;-86
2023/10/21 05:09:16;;;;;;;;;;;;;;;;;;5021517;28;19926;-87
2023/10/21 05:11:41;;;;;;;;;;;;;;;;;;5018056;28;20284;-88
2023/10/21 05:14:06;;;;;;;;;;;;;;;;;;5011385;28;20010;-87
2023/10/21 05:16:31;;;;;;;;;;;;;;;;;;5022777;28;19921;-88
2023/10/21 05:18:57;;;;;;;;;;;;;;;;;;5021387;28;19922;-88
2023/10/21 05:21:22;;;;;;;;;;;;;;;;;;5014288;28;19925;-88
2023/10/21 05:23:47;;;;;;;;;;;;;;;;;;5014640;28;19921;-88
2023/10/21 05:26:12;;;;;;;;;;;;;;;;;;5017393;28;20004;-87
2023/10/21 05:28:37;;;;;;;;;;;;;;;;;;5005015;28;19995;-87
2023/10/21 05:31:03;;;;;;;;;;;;;;;;;;5002002;28;19960;-88
2023/10/21 05:33:28;;;;;;;;;;;;;;;;;;5009503;28;19937;-87
2023/10/21 05:35:54;;;;;;;;;;;;;;;;;;5016226;28;19925;-87
2023/10/21 05:38:19;;;;;;;;;;;;;;;;;;5016280;28;20264;-90
2023/10/21 05:40:44;;;;;;;;;;;;;;;;;;5027425;28;19928;-88
2023/10/21 05:43:09;;;;;;;;;;;;;;;;;;5018446;28;19929;-88
2023/10/21 05:45:35;;;;;;;;;;;;;;;;;;5013209;28;19956;-89
2023/10/21 05:48:00;;;;;;;;;;;;;;;;;;5021055;28;19926;-88
2023/10/21 05:50:25;;;;;;;;;;;;;;;;;;5015220;28;19933;-89
2023/10/21 05:52:51;;;;;;;;;;;;;;;;;;5010093;28;19932;-88
2023/10/21 05:55:17;;;;;;;;;;;;;;;;;;5011727;28;19976;-88
2023/10/21 05:57:42;;;;;;;;;;;;;;;;;;5008249;28;19948;-87
2023/10/21 06:00:07;;;;;;;;;;;;;;;;;;5016646;28;19922;-88
2023/10/21 06:02:33;;;;;;;;;;;;;;;;;;5013274;28;19928;-88
2023/10/21 06:04:58;;;;;;;;;;;;;;;;;;5013263;28;19979;-88
2023/10/21 06:07:23;;;;;;;;;;;;;;;;;;5014279;28;19940;-89
2023/10/21 06:09:48;;;;;;;;;;;;;;;;;;5011085;28;20327;-88
2023/10/21 06:12:13;;;;;;;;;;;;;;;;;;5018255;28;20276;-89
2023/10/21 06:14:38;;;;;;;;;;;;;;;;;;5012670;28;19925;-88
2023/10/21 06:17:03;;;;;;;;;;;;;;;;;;4993342;28;19922;-88
2023/10/21 06:19:28;;;;;;;;;;;;;;;;;;4991324;28;19922;-88
2023/10/21 06:21:53;;;;;;;;;;;;;;;;;;5013812;28;19922;-88
2023/10/21 06:24:19;;;;;;;;;;;;;;;;;;5013731;28;20421;-89
2023/10/21 06:26:44;;;;;;;;;;;;;;;;;;5021652;28;20412;-88
2023/10/21 06:29:10;;;;;;;;;;;;;;;;;;5014825;28;19928;-89
2023/10/21 06:31:35;;;;;;;;;;;;;;;;;;5012033;28;20318;-88
2023/10/21 06:34:00;;;;;;;;;;;;;;;;;;5012823;28;19921;-87
2023/10/21 06:36:25;;;;;;;;;;;;;;;;;;5013601;28;19921;-88
2023/10/21 06:38:50;;;;;;;;;;;;;;;;;;5017125;28;19921;-87
2023/10/21 06:41:15;;;;;;;;;;;;;;;;;;5011243;28;20283;-88
2023/10/21 06:43:40;;;;;;;;;;;;;;;;;;5014626;28;19926;-88
2023/10/21 06:46:06;;;;;;;;;;;;;;;;;;5011754;28;19960;-88
2023/10/21 06:48:31;;;;;;;;;;;;;;;;;;5014521;28;20008;-87
2023/10/21 06:50:56;;;;;;;;;;;;;;;;;;5014754;28;20013;-88
2023/10/21 06:53:22;;;;;;;;;;;;;;;;;;5011889;28;19925;-88
2023/10/21 06:55:47;;;;;;;;;;;;;;;;;;5016703;28;20299;-88
2023/10/21 06:58:12;;;;;;;;;;;;;;;;;;5014444;28;19918;-88
2023/10/21 07:00:37;;;;;;;;;;;;;;;;;;5015971;28;20032;-87
2023/10/21 07:03:02;;;;;;;;;;;;;;;;;;5015176;28;19922;-87
2023/10/21 07:05:27;;;;;;;;;;;;;;;;;;5015463;28;19925;-88
2023/10/21 07:07:52;;;;;;;;;;;;;;;;;;5005889;28;20482;-87
2023/10/21 07:10:18;;;;;;;;;;;;;;;;;;4997807;28;19928;-88
2023/10/21 07:12:43;;;;;;;;;;;;;;;;;;5024194;28;19947;-88
2023/10/21 07:15:09;;;;;;;;;;;;;;;;;;5022979;28;20327;-87
2023/10/21 07:17:35;;;;;;;;;;;;;;;;;;5010635;28;19922;-88
2023/10/21 07:20:00;;;;;;;;;;;;;;;;;;5013075;28;19960;-87
2023/10/21 07:22:25;;;;;;;;;;;;;;;;;;5016240;28;19925;-86
2023/10/21 07:24:50;;;;;;;;;;;;;;;;;;5017374;28;19963;-86
2023/10/21 07:27:16;;;;;;;;;;;;;;;;;;5010634;28;19947;-87
2023/10/21 07:29:41;;;;;;;;;;;;;;;;;;5011952;28;19945;-86
2023/10/21 07:32:06;;;;;;;;;;;;;;;;;;5011566;28;19925;-90
2023/10/21 07:34:31;;;;;;;;;;;;;;;;;;5014829;28;19922;-87
2023/10/21 07:36:57;;;;;;;;;;;;;;;;;;5018510;28;19989;-86
2023/10/21 07:39:23;;;;;;;;;;;;;;;;;;5015986;28;19921;-86
2023/10/21 07:41:49;;;;;;;;;;;;;;;;;;5015531;28;20367;-85
2023/10/21 07:44:14;;;;;;;;;;;;;;;;;;5014742;28;19921;-86
2023/10/21 07:46:40;;;;;;;;;;;;;;;;;;5024188;28;20387;-86
2023/10/21 07:49:06;;;;;;;;;;;;;;;;;;5014206;28;19931;-86
2023/10/21 07:51:32;;;;;;;;;;;;;;;;;;5011654;28;19928;-86
2023/10/21 07:53:57;;;;;;;;;;;;;;;;;;5017477;28;19921;-86
2023/10/21 07:56:23;;;;;;;;;;;;;;;;;;5015195;28;19921;-87
2023/10/21 07:58:48;;;;;;;;;;;;;;;;;;5020352;28;19956;-86
2023/10/21 08:01:13;;;;;;;;;;;;;;;;;;5019158;28;19928;-87
2023/10/21 08:03:38;;;;;;;;;;;;;;;;;;5018217;28;19932;-85
2023/10/21 08:06:03;;;;;;;;;;;;;;;;;;5015876;28;19922;-85
2023/10/21 08:08:29;;;;;;;;;;;;;;;;;;5015479;28;20018;-87
2023/10/21 08:10:54;;;;;;;;;;;;;;;;;;5023019;28;19922;-85
2023/10/21 08:13:21;;;;;;;;;;;;;;;;;;5017573;28;19921;-84
2023/10/21 08:15:46;;;;;;;;;;;;;;;;;;5014280;28;19923;-85
2023/10/21 08:18:11;;;;;;;;;;;;;;;;;;5009660;28;20399;-86
2023/10/21 08:20:37;;;;;;;;;;;;;;;;;;5008124;28;19930;-85
2023/10/21 08:23:02;;;;;;;;;;;;;;;;;;5012602;28;19925;-85
2023/10/21 08:25:27;;;;;;;;;;;;;;;;;;5014054;28;20286;-84
2023/10/21 08:27:52;;;;;;;;;;;;;;;;;;5013886;28;19932;-85
2023/10/21 08:30:18;;;;;;;;;;;;;;;;;;5015908;28;19948;-86
2023/10/21 08:32:44;;;;;;;;;;;;;;;;;;5008946;28;20071;-85
2023/10/21 08:35:09;;;;;;;;;;;;;;;;;;5012970;28;19921;-84
2023/10/21 08:37:34;;;;;;;;;;;;;;;;;;5013462;28;19976;-85
2023/10/21 08:39:59;;;;;;;;;;;;;;;;;;5012834;28;19921;-85
2023/10/21 08:42:25;;;;;;;;;;;;;;;;;;5012465;28;19928;-88
2023/10/21 08:44:50;;;;;;;;;;;;;;;;;;5010268;28;20336;-87
2023/10/21 08:47:16;;;;;;;;;;;;;;;;;;5010716;28;19925;-86
2023/10/21 08:49:45;;;;;;;;;;;;;;;;;;5010549;28;19925;-86
2023/10/21 08:52:10;;;;;;;;;;;;;;;;;;5011451;28;20403;-88
2023/10/21 08:54:35;;;;;;;;;;;;;;;;;;5011609;28;20376;-86
2023/10/21 08:57:00;;;;;;;;;;;;;;;;;;5013003;28;19922;-87
2023/10/21 08:59:26;;;;;;;;;;;;;;;;;;5009573;28;19922;-86
2023/10/21 09:01:51;;;;;;;;;;;;;;;;;;5006574;28;19929;-86
2023/10/21 09:04:16;;;;;;;;;;;;;;;;;;5011739;28;19921;-87
2023/10/21 09:06:41;;;;;;;;;;;;;;;;;;5011113;28;20268;-88
2023/10/21 09:09:07;;;;;;;;;;;;;;;;;;5010333;28;20298;-87
2023/10/21 09:11:32;;;;;;;;;;;;;;;;;;5011608;28;19928;-87
2023/10/21 09:13:58;;;;;;;;;;;;;;;;;;5010914;28;20397;-89
2023/10/21 09:16:23;;;;;;;;;;;;;;;;;;5009101;28;19917;-88
2023/10/21 09:18:48;;;;;;;;;;;;;;;;;;5009682;28;20367;-88
2023/10/21 09:21:14;;;;;;;;;;;;;;;;;;5009137;28;19921;-88
2023/10/21 09:23:39;;;;;;;;;;;;;;;;;;5009177;28;19991;-88
2023/10/21 09:26:04;;;;;;;;;;;;;;;;;;5009558;28;19921;-87
2023/10/21 09:28:30;;;;;;;;;;;;;;;;;;5020884;28;20351;-88
2023/10/21 09:30:58;;;;;;;;;;;;;;;;;;5008389;28;19965;-89
2023/10/21 09:33:23;;;;;;;;;;;;;;;;;;5012130;28;19979;-88
2023/10/21 09:35:49;;;;;;;;;;;;;;;;;;5014523;28;20028;-87
2023/10/21 09:38:14;;;;;;;;;;;;;;;;;;5020261;28;19957;-88
2023/10/21 09:40:39;;;;;;;;;;;;;;;;;;5019518;28;19921;-88
2023/10/21 09:43:04;;;;;;;;;;;;;;;;;;5032616;28;19932;-88
2023/10/21 09:45:29;;;;;;;;;;;;;;;;;;5023128;28;19944;-87
2023/10/21 09:47:55;;;;;;;;;;;;;;;;;;5033042;28;19948;-89
2023/10/21 09:50:20;;;;;;;;;;;;;;;;;;5030917;28;19952;-88
2023/10/21 09:52:45;;;;;;;;;;;;;;;;;;5030733;28;20360;-87
2023/10/21 09:55:11;;;;;;;;;;;;;;;;;;5030467;28;19926;-88
2023/10/21 09:57:36;;;;;;;;;;;;;;;;;;5018198;28;19928;-87
2023/10/21 10:00:02;;;;;;;;;;;;;;;;;;5007211;28;20500;-87
2023/10/21 10:02:27;;;;;;;;;;;;;;;;;;5014857;28;19921;-87
2023/10/21 10:04:53;;;;;;;;;;;;;;;;;;5010828;28;19918;-87
2023/10/21 10:07:18;;;;;;;;;;;;;;;;;;5004585;28;19987;-87
2023/10/21 10:09:44;;;;;;;;;;;;;;;;;;5015431;28;19928;-88
2023/10/21 10:12:09;;;;;;;;;;;;;;;;;;5012205;28;20189;-88
2023/10/21 10:14:34;;;;;;;;;;;;;;;;;;5012443;28;19925;-89
2023/10/21 10:16:59;;;;;;;;;;;;;;;;;;5011898;28;19922;-87
2023/10/21 10:19:24;;;;;;;;;;;;;;;;;;5011491;28;19964;-88
2023/10/21 10:21:52;;;;;;;;;;;;;;;;;;5011331;28;19983;-88
2023/10/21 10:24:17;;;;;;;;;;;;;;;;;;5011150;28;19922;-88
2023/10/21 10:26:42;;;;;;;;;;;;;;;;;;5011214;28;19922;-88
2023/10/21 10:29:07;;;;;;;;;;;;;;;;;;5011829;28;20451;-89
2023/10/21 10:31:33;;;;;;;;;;;;;;;;;;5010446;28;20410;-88
2023/10/21 10:33:59;;;;;;;;;;;;;;;;;;5010339;28;20008;-89
2023/10/21 10:36:24;;;;;;;;;;;;;;;;;;5009238;28;19929;-87
2023/10/21 10:38:53;;;;;;;;;;;;;;;25.66;nan;98700.31;5012187;28;19929;-90
2023/10/21 10:41:18;;;;;;;;;;;;;;;;;;5011219;28;19918;-88
2023/10/21 10:43:43;;;;;;;;;;;;;;;;;;5018007;28;20502;-86
2023/10/21 10:46:10;;;;;;;;;;;;;;;26.20;nan;98682.63;5011232;28;19921;-88
2023/10/21 10:48:35;;;;;;;;;;;;;;;;;;5016707;28;20303;-89
2023/10/21 10:51:01;;;;;;;;;;;;;;;;;;5011245;28;19933;-88
2023/10/21 10:53:26;;;;;;;;;;;;;;;;;;5011392;28;19928;-87
2023/10/21 10:55:54;;;;;;;;;;;;;;;25.73;nan;98673.69;5007165;28;19929;-87
2023/10/21 10:58:19;;;;;;;;;;;;;;;;;;5008372;28;19921;-88
2023/10/21 11:00:45;;;;;;;;;;;;;;;26.43;nan;98687.03;5008110;28;20016;-86
2023/10/21 11:03:11;;;;;;;;;;;;;;;26.82;nan;98688.44;5013057;28;20636;-86
2023/10/21 11:05:37;;;;;;;;;;;;;;;27.32;nan;98702.00;5012828;28;19922;-86
2023/10/21 11:08:04;;;;;;;;;;;;;;;;;;5008566;28;20284;-87
2023/10/21 11:10:29;;;;;;;;;;;;;;;;;;5011535;28;19936;-87
2023/10/21 11:12:55;;;;;;;;;;;;;;;;;;5015858;28;19921;-87
2023/10/21 11:15:21;;;;;;;;;;;;;;;;;;5013935;28;19967;-86
2023/10/21 11:17:47;;;;;;;;;;;;;;;;;;5016200;28;19975;-87
2023/10/21 11:20:13;;;;;;;;;;;;;;;;;;5021093;28;20007;-87
2023/10/21 11:22:39;;;;;;;;;;;;;;;;;;5014878;28;19921;-88
2023/10/21 11:25:04;;;;;;;;;;;;;;;;;;5009670;28;20379;-87
2023/10/21 11:27:29;;;;;;;;;;;;;;;;;;5009815;28;20426;-87
2023/10/21 11:29:54;;;;;;;;;;;;;;;;;;5012599;28;19921;-87
2023/10/21 11:32:19;;;;;;;;;;;;;;;;;;5011582;28;20347;-87
2023/10/21 11:34:44;;;;;;;;;;;;;;;;;;5012383;28;20371;-87
2023/10/21 11:37:10;;;;;;;;;;;;;;;;;;5012143;28;19921;-88
2023/10/21 11:39:35;;;;;;;;;;;;;;;;;;5008247;28;19921;-88
2023/10/21 11:42:00;;;;;;;;;;;;;;;;;;5011557;28;19968;-86
2023/10/21 11:44:31;;;;;;;;;;;;;;;;;;5012320;28;19929;-87
2023/10/21 11:46:56;;;;;;;;;;;;;;;;;;5009698;28;19986;-87
2023/10/21 11:49:23;;;;;;;;;;;;;;;;;;5009374;28;20005;-88
2023/10/21 11:51:49;;;;;;;;;;;;;;;;;;5011573;28;20335;-87
2023/10/21 11:54:32;;;;;;;;;;;;;;;;;;5005341;28;19973;-88
2023/10/21 12:03:19;;;;;;;;;;;;;;;;;;5008010;28;19988;-87
2023/10/21 12:08:50;;;;;;;;;;;;;;;;;;5009530;28;19948;-87
2023/10/21 12:11:10;;;;;;;;;;;;;;;;;;5002414;28;19921;-87
2023/10/21 12:13:51;;;;;;;;;;;;;;;;;;5006612;28;19945;-86
2023/10/21 12:35:20;;;;;;;;;;;;;;;;;;5011066;28;19928;-88
2023/10/21 12:43:24;;;;;;;;;;;;;;;;;;5005230;28;19996;-87
2023/10/21 12:45:46;;;;;;;;;;;;;;;;;;5007210;28;19928;-87
2023/10/21 12:48:11;;;;;;;;;;;;;;;;;;5004748;28;19934;-88
2023/10/21 12:50:38;;;;;;;;;;;;;;;;;;5010579;28;19926;-87
2023/10/21 12:53:03;;;;;;;;;;;;;;;;;;5009476;28;20342;-88
2023/10/21 12:55:29;;;;;;;;;;;;;;;;;;5008985;28;19975;-88
2023/10/21 12:57:54;;;;;;;;;;;;;;;;;;5009399;28;19963;-89
2023/10/21 13:00:20;;;;;;;;;;;;;;;;;;5008269;28;19949;-87
2023/10/21 13:02:46;;;;;;;;;;;;;;;;;;5008419;28;19976;-88
2023/10/21 13:05:11;;;;;;;;;;;;;;;;;;5008257;28;20075;-87
2023/10/21 13:07:39;;;;;;;;;;;;;;;;;;5010952;28;20020;-89
2023/10/21 13:10:04;;;;;;;;;;;;;;;;;;5011628;28;19960;-88
2023/10/21 13:12:29;;;;;;;;;;;;;;;;;;5013933;28;19972;-88
2023/10/21 13:14:54;;;;;;;;;;;;;;;;;;5011299;28;20377;-89
2023/10/21 13:17:19;;;;;;;;;;;;;;;;;;5007818;28;19960;-88
2023/10/21 13:19:44;;;;;;;;;;;;;;;;;;5011699;28;20421;-87
2023/10/21 13:22:09;;;;;;;;;;;;;;;;;;5006896;28;20284;-88
2023/10/21 13:24:34;;;;;;;;;;;;;;;;;;5007402;28;19922;-88
2023/10/21 13:26:59;;;;;;;;;;;;;;;;;;5009262;28;19926;-88
2023/10/21 13:29:25;;;;;;;;;;;;;;;;;;5006346;28;19929;-88
2023/10/21 13:31:50;;;;;;;;;;;;;;;;;;5008306;28;19921;-88
2023/10/21 13:34:15;;;;;;;;;;;;;;;;;;5005350;28;19921;-87
2023/10/21 13:36:40;;;;;;;;;;;;;;;;;;5011399;28;19929;-87
2023/10/21 13:39:15;;;;;;;;;;;;;;;;;;5009202;28;19944;-88
2023/10/21 13:41:43;;;;;;;;;;;;;;;;;;5010556;28;19974;-87
2023/10/21 13:44:08;;;;;;;;;;;;;;;;;;5010828;28;19972;-88
2023/10/21 13:46:34;;;;;;;;;;;;;;;;;;5011156;28;19953;-88
2023/10/21 13:49:00;;;;;;;;;;;;;;;;;;5009595;28;19949;-89
2023/10/21 13:51:25;;;;;;;;;;;;;;;;;;5012135;28;21401;-87
2023/10/21 13:53:52;;;;;;;;;;;;;;;;;;5022698;28;20355;-86
2023/10/21 13:56:18;;;;;;;;;;;;;;;;;;5021774;28;19979;-89
2023/10/21 13:58:43;;;;;;;;;;;;;;;;;;5024208;28;19990;-88
2023/10/21 14:01:12;;;;;;;;;;;;;;;;;;5019489;28;19929;-88
2023/10/21 14:03:39;;;;;;;;;;;;;;;;;;5016040;28;19922;-88
2023/10/21 14:06:07;;;;;;;;;;;;;;;;;;5017109;28;19957;-87
2023/10/21 14:08:32;;;;;;;;;;;;;;;;;;5018921;28;19932;-89
2023/10/21 14:10:57;;;;;;;;;;;;;;;;;;5023237;28;19921;-89
2023/10/21 14:13:29;;;;;;;;;;;;;;;;;;5017111;28;20398;-89
2023/10/21 14:15:55;;;;;;;;;;;;;;;;;;5011861;28;19928;-89
2023/10/21 14:18:20;;;;;;;;;;;;;;;;;;5016078;28;19929;-89
2023/10/21 14:20:49;;;;;;;;;;;;;;;;;;5016161;28;19996;-89
2023/10/21 14:23:15;;;;;;;;;;;;;;;;;;5018399;28;19935;-89
2023/10/21 14:25:40;;;;;;;;;;;;;;;;;;5010686;28;19925;-88
2023/10/21 14:28:09;;;;;;;;;;;;;;;;;;5009184;28;19926;-88
2023/10/21 14:30:34;;;;;;;;;;;;;;;;;;5009577;28;19972;-88
2023/10/21 14:33:00;;;;;;;;;;;;;;;;;;5013905;28;19926;-88
2023/10/21 14:35:26;;;;;;;;;;;;;;;;;;5014025;28;20391;-88
2023/10/21 14:37:51;;;;;;;;;;;;;;;;;;5014685;28;19921;-89
2023/10/21 14:40:16;;;;;;;;;;;;;;;;;;5015263;28;19929;-88
2023/10/21 14:42:41;;;;;;;;;;;;;;;;;;5012273;28;19921;-89
2023/10/21 14:45:10;;;;;;;;;;;;;;;;;;5012740;28;19921;-87
2023/10/21 14:47:36;;;;;;;;;;;;;;;;;;5013547;28;19922;-88
2023/10/21 14:50:01;;;;;;;;;;;;;;;;;;5011893;28;19928;-89
2023/10/21 14:52:27;;;;;;;;;;;;;;;;;;5012226;28;19968;-89
2023/10/21 14:54:52;;;;;;;;;;;;;;;;;;5012078;28;19984;-88
2023/10/21 14:57:18;;;;;;;;;;;;;;;;;;5010775;28;19921;-88
2023/10/21 14:59:43;;;;;;;;;;;;;;;;;;5011251;28;19921;-87
2023/10/21 15:02:09;;;;;;;;;;;;;;;;;;5033221;23;19926;-82
2023/10/21 15:04:34;;;;;;;;;;;;;;;;;;5016015;28;20346;-82
2023/10/21 15:06:59;;;;;;;;;;;;;;;;;;5001441;23;20426;-82
2023/10/21 15:09:24;;;;;;;;;;;;;;;;;;4996428;28;19953;-82
2023/10/21 15:11:50;;;;;;;;;;;;;;;;;;5000215;28;19929;-82
2023/10/21 15:14:15;;;;;;;;;;;;;;;;;;5002336;28;19921;-79
2023/10/21 15:16:40;;;;;;;;;;;;;;;;;;4999985;28;19929;-80
2023/10/21 15:19:05;;;;;;;;;;;;;;;;;;4989614;28;20005;-79
2023/10/21 15:21:31;;;;;;;;;;;;;;;;;;4998070;28;20390;-80
2023/10/21 15:23:56;;;;;;;;;;;;;;;;;;5005608;28;19928;-81
2023/10/21 15:26:21;;;;;;;;;;;;;;;;;;4996467;28;19964;-80
2023/10/21 15:28:46;;;;;;;;;;;;;;;;;;5001479;28;20009;-80
2023/10/21 15:31:11;;;;;;;;;;;;;;;;;;5003733;28;20012;-80
2023/10/21 15:33:36;;;;;;;;;;;;;;;;;;4998587;28;19918;-80
2023/10/21 15:36:02;;;;;;;;;;;;;;;;;;5007058;28;19933;-81
2023/10/21 15:38:27;;;;;;;;;;;;;;;;;;5002238;28;20498;-80
2023/10/21 15:40:53;;;;;;;;;;;;;;;;;;5005336;28;19929;-80
2023/10/21 15:43:18;;;;;;;;;;;;;;;;;;5010256;28;19921;-80
2023/10/21 15:45:43;;;;;;;;;;;;;;;;;;4997754;28;19922;-80
2023/10/21 15:48:08;;;;;;;;;;;;;;;;;;5003471;28;19922;-80
2023/10/21 15:50:35;;;;;;;;;;;;;;;;;;5004488;28;19921;-80
2023/10/21 15:53:01;;;;;;;;;;;;;;;;;;5002074;28;19945;-81
2023/10/21 15:55:26;;;;;;;;;;;;;;;;;;5000386;28;20381;-79
2023/10/21 15:57:51;;;;;;;;;;;;;;;;;;5002992;28;19918;-83
2023/10/21 16:00:16;;;;;;;;;;;;;;;;;;5002518;28;19944;-83
2023/10/21 16:02:49;;;;;;;;;;;;;;;;;;4995070;28;19964;-83
2023/10/21 16:05:26;;;;;;;;;;;;;;;;;;4994006;28;20000;-82
2023/10/21 16:07:54;;;;;;;;;;;;;;;;;;5009025;28;20424;-83
2023/10/21 16:10:22;;;;;;;;;;;;;;;;;;5015786;28;20447;-84
2023/10/21 16:12:47;;;;;;;;;;;;;;;;;;5015907;28;19921;-83
2023/10/21 16:15:12;;;;;;;;;;;;;;;;;;5024379;28;20442;-78
2023/10/21 16:17:37;;;;;;;;;;;;;;;;;;5034245;28;19955;-79
2023/10/21 16:20:04;;;;;;;;;;;;;;;;;;5042043;28;20380;-79
2023/10/21 16:22:35;;;;;;;;;;;;;;;;;;5034553;28;19921;-80
2023/10/21 16:25:01;;;;;;;;;;;;;;;;;;5064702;28;19921;-81
2023/10/21 16:27:26;;;;;;;;;;;;;;;;;;5049794;28;19921;-80
2023/10/21 16:29:51;;;;;;;;;;;;;;;;;;5050197;28;19917;-81
2023/10/21 16:32:16;;;;;;;;;;;;;;;;;;5046841;28;19917;-80
2023/10/21 16:34:41;;;;;;;;;;;;;;;;;;5049433;28;19918;-81
2023/10/21 16:37:08;;;;;;;;;;;;;;;;;;5048540;28;20432;-81
2023/10/21 16:42:02;;;;;;;;;;;;;;;;;;5035369;28;20280;-81
2023/10/21 16:44:27;;;;;;;;;;;;;;;;;;5035452;28;19922;-82
2023/10/21 16:46:52;;;;;;;;;;;;;;;;;;5037392;28;19936;-81
2023/10/21 16:49:17;;;;;;;;;;;;;;;;;;5037931;28;19932;-82
2023/10/21 16:51:42;;;;;;;;;;;;;;;;;;5035213;28;20419;-82
2023/10/21 16:54:07;;;;;;;;;;;;;;;;;;5030420;28;19929;-81
2023/10/21 16:56:33;;;;;;;;;;;;;;;;;;5036603;28;19917;-82
2023/10/21 16:58:58;;;;;;;;;;;;;;;;;;5035720;28;20518;-81
2023/10/21 17:01:23;;;;;;;;;;;;;;;;;;5035412;28;19960;-81
2023/10/21 17:03:48;;;;;;;;;;;;;;;;;;5036583;28;19984;-81
2023/10/21 17:06:13;;;;;;;;;;;;;;;;;;5034895;28;19921;-82